Kent City, MI (49330)

10:36 AM EST on December 06, 2016 (GMT -0500)
Indian Lakes Road | | Change Station

Elev 784 ft 43.20 °N, 85.71 °W | Updated 5 minutes ago

Mostly Cloudy
Mostly Cloudy
33.8 °F
Feels Like 29 °F
N
5.0
Wind Variable Wind from WNW
Gusts 13.0 mph

Today
High -- | Low -- °F
--% Chance of Precip.
Yesterday
High -- | Low -- °F
Precip. -- in
Pressure 29.80 in
Visibility 7.0 miles
Clouds Mostly Cloudy 1000 ft
Windchill 29 °F
Dew Point 31 °F
Humidity 89%
Rainfall 0.00 in
Snow Depth Not available.
8:00 AM 5:07 PM
Waxing Crescent, 42% visible
METAR KFFX 061514Z AUTO 11008KT 7SM BKN010 01/M02 A2980 RMK AO2 T00081016
Pressure 29.80 in
Visibility 7.0 miles
Clouds Mostly Cloudy 1000 ft
Windchill 29 °F
Dew Point 31 °F
Humidity 89%
Rainfall 0.00 in
Snow Depth Not available.
8:00 AM 5:07 PM
Waxing Crescent, 42% visible
METAR KFFX 061514Z AUTO 11008KT 7SM BKN010 01/M02 A2980 RMK AO2 T00081016

10-Day Weather Forecast

Almanac

Astronomy

Dec. 06, 2016 Rise Set
Actual Time
Civil Twilight
Nautical Twilight
Astronomical Twilight
Moon
Length of Visible Light
Length of Day
Tomorrow will be .
, % of the Moon is Illuminated

Today's Extremes

State Highs State Lows

Community

WunderPhotos

Upload Photos

1,955,957 photos uploaded!

WunderBlog® & News

Nearby

Air Quality

  Air Quality AQ Index Pollutant
Not available.

Snow Depth

Station Depth Elevation

Earthquake Activity

City Distance Mag. Time & Date
Minimum magnitude displayed is 2.5.

Coastal Water Temperatures

Place Temperature

Stations

Nearby Weather Stations

Station Location Temp. Windchill Dew Point Humidity Wind Precip. Elev Updated Type
                   

Watches & Warnings

There are currently no watches in effect.